Terminal Aerodrome Forecast
Issued by NWS Spokane, WA

Home | Current Version | Previous Version | Text Only | Print | Product List | Glossary On
Versions: 1 2 3 4 5 6 7 8 9 10 11 12 13 14 15
000
FTUS46 KOTX 171147 CCA
TAFEAT
TAF COR
KEAT 171147Z 1712/1812 33004KT P6SM VCSH BKN080 OVC120
     FM171800 14006KT P6SM -SHRA SCT030 OVC050
     FM180100 28010KT P6SM VCSH BKN080
     FM180800 31013G21KT P6SM SKC=

USA.gov is the U.S. government's official web portal to all federal, state and local government web resources and services.